Time;durP1;ratioP1;P1;durP2;ratioP2;P2;SDS_P1;SDS_P2;PMS_P1;PMS_P2;Temp;Humidity;BMP_temperature;BMP_pressure;BME280_temperature;BME280_humidity;BME280_pressure;Samples;Min_cycle;Max_cycle;Signal;HPM_P1;HPM_P2
2021/05/20 00:02:15;;;;;;;1.23;0.90;;;21.00;57.90;;;;;;4986450;28;20228;-55
2021/05/20 00:04:43;;;;;;;1.13;0.70;;;21.00;57.90;;;;;;4986196;28;20648;-53
2021/05/20 00:07:10;;;;;;;1.60;1.00;;;21.00;57.90;;;;;;4986577;28;20801;-54
2021/05/20 00:09:37;;;;;;;1.10;1.00;;;20.90;57.80;;;;;;4982272;28;20630;-53
2021/05/20 00:12:04;;;;;;;1.17;0.93;;;21.00;57.90;;;;;;4986428;28;20238;-55
2021/05/20 00:14:31;;;;;;;2.10;0.90;;;21.00;57.90;;;;;;4986127;28;20260;-53
2021/05/20 00:16:57;;;;;;;1.30;1.10;;;21.00;57.90;;;;;;4986406;28;20239;-53
2021/05/20 00:19:25;;;;;;;1.10;1.00;;;21.00;57.80;;;;;;4985754;28;20239;-53
2021/05/20 00:21:52;;;;;;;1.57;1.30;;;21.00;57.80;;;;;;4984072;28;20315;-53
2021/05/20 00:24:19;;;;;;;1.20;1.10;;;21.00;57.80;;;;;;4980846;28;20232;-53
2021/05/20 00:26:46;;;;;;;1.23;1.10;;;21.00;58.10;;;;;;4986459;28;20306;-55
2021/05/20 00:29:13;;;;;;;1.13;1.00;;;21.00;57.80;;;;;;4985943;28;20262;-55
2021/05/20 00:31:40;;;;;;;1.13;1.13;;;21.00;57.70;;;;;;4984588;28;20216;-54
2021/05/20 00:34:06;;;;;;;1.20;1.10;;;21.00;57.70;;;;;;4983710;28;20232;-54
2021/05/20 00:36:33;;;;;;;1.30;1.10;;;21.00;57.70;;;;;;4986200;28;20601;-54
2021/05/20 00:39:02;;;;;;;1.70;1.23;;;20.90;57.60;;;;;;4982859;28;20290;-54
2021/05/20 00:41:29;;;;;;;1.17;1.07;;;20.90;57.60;;;;;;4985779;28;20216;-54
2021/05/20 00:43:56;;;;;;;1.20;1.10;;;20.90;57.60;;;;;;4984474;28;20584;-53
2021/05/20 00:46:23;;;;;;;1.20;1.10;;;20.90;57.60;;;;;;4985766;28;20228;-55
2021/05/20 00:48:50;;;;;;;1.53;1.43;;;20.90;57.60;;;;;;4986584;28;20226;-55
2021/05/20 00:51:17;;;;;;;1.93;1.10;;;20.90;57.60;;;;;;4982819;28;20358;-55
2021/05/20 00:53:48;;;;;;;1.37;1.27;;;20.90;57.60;;;;;;4985097;28;20779;-54
2021/05/20 00:56:22;;;;;;;1.00;1.00;;;20.90;57.60;;;;;;4985008;28;20635;-52
2021/05/20 00:58:49;;;;;;;1.53;1.37;;;20.90;57.50;;;;;;4986781;28;21632;-54
2021/05/20 01:01:16;;;;;;;1.10;1.00;;;20.90;57.60;;;;;;4987097;28;20869;-54
2021/05/20 01:03:43;;;;;;;1.30;1.10;;;20.90;57.50;;;;;;4988087;28;20236;-55
2021/05/20 01:06:10;;;;;;;1.43;1.20;;;20.90;57.50;;;;;;4984616;28;20594;-54
2021/05/20 01:08:37;;;;;;;1.50;1.33;;;20.90;57.50;;;;;;4987991;28;20247;-55
2021/05/20 01:11:04;;;;;;;1.27;1.17;;;20.90;57.50;;;;;;4987613;28;20228;-54
2021/05/20 01:13:31;;;;;;;1.20;1.10;;;20.90;57.50;;;;;;4987701;28;20703;-53
2021/05/20 01:15:58;;;;;;;1.30;1.20;;;20.90;57.50;;;;;;4986684;28;20220;-55
2021/05/20 01:18:25;;;;;;;3.00;1.40;;;20.90;58.10;;;;;;4987652;28;20267;-54
2021/05/20 01:20:52;;;;;;;1.33;1.23;;;20.90;57.40;;;;;;4987656;28;20224;-54
2021/05/20 01:23:20;;;;;;;1.20;1.10;;;20.90;57.40;;;;;;4985797;28;20250;-53
2021/05/20 01:25:53;;;;;;;1.37;1.20;;;20.90;57.40;;;;;;4985308;28;20232;-53
2021/05/20 01:28:21;;;;;;;1.30;1.20;;;20.90;57.50;;;;;;4987322;28;20613;-54
2021/05/20 01:30:50;;;;;;;1.37;1.27;;;20.80;57.40;;;;;;4985687;28;20228;-54
2021/05/20 01:33:17;;;;;;;0.93;0.90;;;20.80;57.30;;;;;;4987126;28;20239;-54
2021/05/20 01:35:58;;;;;;;1.20;1.10;;;20.80;57.40;;;;;;4983662;28;20237;-52
2021/05/20 01:41:00;;;;;;;1.30;1.20;;;20.80;57.30;;;;;;5002123;28;20230;-54
2021/05/20 01:43:28;;;;;;;1.33;1.20;;;20.80;57.30;;;;;;4985676;28;20605;-54
2021/05/20 01:45:59;;;;;;;1.60;1.13;;;20.80;57.30;;;;;;4987193;28;20228;-55
2021/05/20 01:48:40;;;;;;;1.50;1.40;;;20.80;57.30;;;;;;4990710;28;20224;-55
2021/05/20 01:51:12;;;;;;;1.53;1.23;;;20.80;57.20;;;;;;4990453;28;20232;-54
2021/05/20 01:53:43;;;;;;;1.70;1.33;;;20.80;57.20;;;;;;4990466;28;20228;-55
2021/05/20 01:56:24;;;;;;;1.50;1.40;;;20.80;57.20;;;;;;4992201;28;20216;-54
2021/05/20 01:58:51;;;;;;;1.40;1.30;;;20.80;57.20;;;;;;4987436;28;20449;-55
2021/05/20 02:01:18;;;;;;;1.37;1.23;;;20.80;57.10;;;;;;4990198;28;20267;-53
2021/05/20 02:03:45;;;;;;;1.30;1.20;;;20.80;57.10;;;;;;4990781;28;20235;-55
2021/05/20 02:06:22;;;;;;;1.43;1.10;;;20.80;57.10;;;;;;4990255;28;20252;-53
2021/05/20 02:08:49;;;;;;;1.50;1.30;;;20.70;57.00;;;;;;4989817;28;20707;-53
2021/05/20 02:11:16;;;;;;;1.50;1.40;;;20.70;57.00;;;;;;4991165;28;20327;-54
2021/05/20 02:13:43;;;;;;;1.70;1.40;;;20.80;57.10;;;;;;4988399;28;21698;-53
2021/05/20 02:16:10;;;;;;;1.30;1.20;;;20.80;57.00;;;;;;4991333;28;20232;-53
2021/05/20 02:18:39;;;;;;;1.20;1.10;;;20.70;57.00;;;;;;4988615;28;20234;-52
2021/05/20 02:21:06;;;;;;;1.10;1.00;;;20.70;57.00;;;;;;4990479;28;20323;-55
2021/05/20 02:23:33;;;;;;;2.13;1.37;;;20.70;57.00;;;;;;4988857;28;20224;-53
2021/05/20 02:26:13;;;;;;;1.37;1.27;;;20.70;57.00;;;;;;4991296;28;20228;-54
2021/05/20 02:28:40;;;;;;;1.50;1.40;;;20.80;56.90;;;;;;4989037;28;20216;-52
2021/05/20 02:31:07;;;;;;;1.90;1.40;;;20.70;56.90;;;;;;4989814;28;20258;-53
2021/05/20 02:33:33;;;;;;;1.40;1.30;;;20.80;56.90;;;;;;4989969;28;20591;-53
2021/05/20 02:36:00;;;;;;;1.70;1.50;;;20.70;56.90;;;;;;4990660;28;20224;-54
2021/05/20 02:38:27;;;;;;;1.40;1.20;;;20.70;56.80;;;;;;4990607;28;20219;-52
2021/05/20 02:40:54;;;;;;;1.17;1.07;;;20.70;56.70;;;;;;4990366;28;20219;-53
2021/05/20 02:43:21;;;;;;;1.50;1.40;;;20.70;56.70;;;;;;5013064;28;20236;-54
2021/05/20 02:45:47;;;;;;;1.40;1.30;;;20.70;56.70;;;;;;4977745;28;20220;-54
2021/05/20 02:48:16;;;;;;;1.27;1.17;;;20.70;56.70;;;;;;4983109;28;20248;-54
2021/05/20 02:50:43;;;;;;;1.77;1.43;;;20.70;56.70;;;;;;4988208;28;20216;-53
2021/05/20 02:53:10;;;;;;;1.40;1.30;;;20.70;56.70;;;;;;4989280;28;20260;-53
2021/05/20 02:55:42;;;;;;;1.60;1.50;;;20.70;56.70;;;;;;4989053;28;20234;-52
2021/05/20 02:58:09;;;;;;;1.40;1.30;;;20.70;56.60;;;;;;4989880;28;20227;-53
2021/05/20 03:00:38;;;;;;;1.97;1.70;;;20.70;56.60;;;;;;4989493;28;20236;-53
2021/05/20 03:03:05;;;;;;;1.30;1.20;;;20.70;56.60;;;;;;4988713;28;20607;-53
2021/05/20 03:05:32;;;;;;;1.50;1.40;;;20.70;56.60;;;;;;4989418;28;20212;-54
2021/05/20 03:07:59;;;;;;;1.20;1.10;;;20.70;56.60;;;;;;4989717;28;20630;-54
2021/05/20 03:10:26;;;;;;;1.30;1.20;;;20.60;56.50;;;;;;4987585;28;20590;-55
2021/05/20 03:12:54;;;;;;;1.50;1.40;;;20.60;56.50;;;;;;4989599;28;20224;-56
2021/05/20 03:15:21;;;;;;;1.57;1.47;;;20.60;56.40;;;;;;4989045;28;20229;-52
2021/05/20 03:17:49;;;;;;;1.43;1.33;;;20.60;56.50;;;;;;4989255;28;20522;-54
2021/05/20 03:20:16;;;;;;;1.17;1.07;;;20.60;56.50;;;;;;4989439;28;20288;-53
2021/05/20 03:22:46;;;;;;;1.60;1.50;;;20.60;56.40;;;;;;4989426;28;20312;-53
2021/05/20 03:25:14;;;;;;;1.40;1.30;;;20.60;56.40;;;;;;4988394;28;20216;-52
2021/05/20 03:27:41;;;;;;;1.60;1.40;;;20.60;56.40;;;;;;4986472;28;20281;-54
2021/05/20 03:30:08;;;;;;;1.40;1.30;;;20.60;56.40;;;;;;4988297;28;20232;-53
2021/05/20 03:32:35;;;;;;;1.70;1.60;;;20.60;56.30;;;;;;4989139;28;20235;-53
2021/05/20 03:35:03;;;;;;;1.37;1.23;;;20.60;56.40;;;;;;4989393;28;20226;-55
2021/05/20 03:37:30;;;;;;;1.20;1.10;;;20.60;56.40;;;;;;4989021;28;20672;-53
2021/05/20 03:39:57;;;;;;;1.37;1.27;;;20.60;56.30;;;;;;4989478;28;20234;-54
2021/05/20 03:42:23;;;;;;;1.70;1.60;;;20.60;56.30;;;;;;4980033;28;20223;-53
2021/05/20 03:45:07;;;;;;;1.70;1.60;;;20.60;56.20;;;;;;4989531;28;20232;-55
2021/05/20 03:47:34;;;;;;;1.60;1.50;;;20.60;56.20;;;;;;4978117;28;20715;-54
2021/05/20 03:50:02;;;;;;;1.67;1.57;;;20.50;56.20;;;;;;4988526;28;20242;-53
2021/05/20 03:52:29;;;;;;;1.40;1.30;;;20.60;56.20;;;;;;4988159;28;20219;-53
2021/05/20 03:54:56;;;;;;;1.60;1.50;;;20.60;56.20;;;;;;4988564;28;20239;-53
2021/05/20 03:57:22;;;;;;;1.73;1.63;;;20.60;56.20;;;;;;4989576;28;20300;-54
2021/05/20 03:59:50;;;;;;;1.90;1.80;;;20.60;56.20;;;;;;4987199;28;20956;-54
2021/05/20 04:02:17;;;;;;;1.87;1.77;;;20.50;56.10;;;;;;4987034;28;20232;-54
2021/05/20 04:04:49;;;;;;;1.97;1.70;;;20.50;56.10;;;;;;4990067;28;20260;-53
2021/05/20 04:07:16;;;;;;;2.03;1.83;;;20.50;56.10;;;;;;4986748;28;20291;-53
2021/05/20 04:09:42;;;;;;;1.73;1.63;;;20.50;56.20;;;;;;5005507;28;20223;-52
2021/05/20 04:12:09;;;;;;;2.10;1.90;;;20.50;56.20;;;;;;4976864;28;20224;-54
2021/05/20 04:14:36;;;;;;;2.70;2.50;;;20.50;56.10;;;;;;4969386;28;20243;-54
2021/05/20 04:17:03;;;;;;;2.13;1.93;;;20.50;56.10;;;;;;4986879;28;20255;-53
2021/05/20 04:19:31;;;;;;;2.13;1.93;;;20.50;56.10;;;;;;4986461;28;20236;-53
2021/05/20 04:21:58;;;;;;;2.00;1.90;;;20.50;56.00;;;;;;4986468;28;20739;-53
2021/05/20 04:24:39;;;;;;;2.43;2.23;;;20.50;56.00;;;;;;4987852;28;20228;-54
2021/05/20 04:27:06;;;;;;;2.50;2.30;;;20.50;55.90;;;;;;4989799;28;20236;-53
2021/05/20 04:29:33;;;;;;;2.50;2.30;;;20.50;55.90;;;;;;4988432;28;20228;-52
2021/05/20 04:32:00;;;;;;;2.50;2.30;;;20.50;55.90;;;;;;4989023;28;20231;-53
2021/05/20 04:34:32;;;;;;;2.70;2.50;;;20.50;55.90;;;;;;5001331;28;20233;-54
2021/05/20 04:36:59;;;;;;;2.30;2.10;;;20.50;55.90;;;;;;4988650;28;20236;-53
2021/05/20 04:39:25;;;;;;;2.77;2.50;;;20.50;55.80;;;;;;4987524;28;20234;-53
2021/05/20 04:41:52;;;;;;;2.70;2.50;;;20.50;55.80;;;;;;4988417;28;20254;-55
2021/05/20 04:44:19;;;;;;;3.30;3.00;;;20.50;55.80;;;;;;4988835;28;20498;-54
2021/05/20 04:46:46;;;;;;;2.70;2.50;;;20.50;55.80;;;;;;4989066;28;20231;-53
2021/05/20 04:49:13;;;;;;;2.90;2.70;;;20.50;55.70;;;;;;4989293;28;20223;-53
2021/05/20 04:51:43;;;;;;;3.30;3.00;;;20.50;55.50;;;;;;4987540;28;20227;-54
2021/05/20 04:54:10;;;;;;;3.50;3.17;;;20.50;55.50;;;;;;4987758;28;20228;-55
2021/05/20 04:56:37;;;;;;;3.53;3.23;;;20.50;55.40;;;;;;4996917;28;20251;-55
2021/05/20 04:59:05;;;;;;;3.70;3.40;;;20.50;55.30;;;;;;4986965;28;20220;-55
2021/05/20 05:01:33;;;;;;;4.23;3.83;;;20.50;55.30;;;;;;4986885;28;20228;-53
2021/05/20 05:03:59;;;;;;;4.17;3.87;;;20.50;55.20;;;;;;4989282;28;20255;-54
2021/05/20 05:06:26;;;;;;;4.40;4.00;;;20.50;55.10;;;;;;4987733;28;20232;-53
2021/05/20 05:08:53;;;;;;;4.30;3.93;;;20.50;55.10;;;;;;4987328;28;20224;-55
2021/05/20 05:11:20;;;;;;;5.00;4.50;;;20.50;55.20;;;;;;4990928;28;20255;-53
2021/05/20 05:13:47;;;;;;;6.47;4.90;;;20.50;55.40;;;;;;4987036;28;20244;-54
2021/05/20 05:16:14;;;;;;;6.70;5.17;;;20.50;55.10;;;;;;4987925;28;20596;-53
2021/05/20 05:18:41;;;;;;;5.47;4.97;;;20.40;55.00;;;;;;4987855;28;20295;-54
2021/05/20 05:21:07;;;;;;;5.60;5.10;;;20.50;55.00;;;;;;4989601;28;20557;-53
2021/05/20 05:23:34;;;;;;;6.17;5.60;;;20.50;55.00;;;;;;4992205;28;20228;-55
2021/05/20 05:26:23;;;;;;;6.13;5.63;;;20.40;54.80;;;;;;4994828;28;20231;-54
2021/05/20 05:28:50;;;;;;;6.40;5.90;;;20.50;54.80;;;;;;4987501;28;20233;-55
2021/05/20 05:31:21;;;;;;;5.97;5.47;;;20.40;54.70;;;;;;4984922;28;20224;-55
2021/05/20 05:33:48;;;;;;;5.97;5.10;;;20.50;54.80;;;;;;4993759;28;20223;-53
2021/05/20 05:36:16;;;;;;;5.60;5.10;;;20.40;54.50;;;;;;4991268;28;20228;-53
2021/05/20 05:38:43;;;;;;;5.83;5.33;;;20.50;54.60;;;;;;4991660;28;20235;-53
2021/05/20 05:41:10;;;;;;;6.07;5.47;;;20.50;54.70;;;;;;4990815;28;20231;-52
2021/05/20 05:43:37;;;;;;;6.53;5.93;;;20.50;54.60;;;;;;4988902;28;20220;-54
2021/05/20 05:46:04;;;;;;;6.90;6.30;;;20.40;54.50;;;;;;4992251;28;20223;-55
2021/05/20 05:48:31;;;;;;;6.23;5.73;;;20.40;54.40;;;;;;4989456;28;20243;-55
2021/05/20 05:50:58;;;;;;;6.80;6.20;;;20.40;54.50;;;;;;4990710;28;20227;-55
2021/05/20 05:53:28;;;;;;;6.03;5.53;;;20.40;54.40;;;;;;4991239;28;20240;-53
2021/05/20 05:55:57;;;;;;;6.83;6.23;;;20.40;54.40;;;;;;4990441;28;20224;-53
2021/05/20 05:58:24;;;;;;;7.40;6.70;;;20.40;54.30;;;;;;4991280;28;20232;-57
2021/05/20 06:00:51;;;;;;;7.13;6.53;;;20.40;54.20;;;;;;4991274;28;20231;-54
2021/05/20 06:03:17;;;;;;;7.40;6.80;;;20.40;54.40;;;;;;4990464;28;20223;-54
2021/05/20 06:05:48;;;;;;;6.67;6.07;;;20.40;54.40;;;;;;4990899;28;20236;-54
2021/05/20 06:08:16;;;;;;;7.43;6.77;;;20.40;54.60;;;;;;4990297;28;20703;-54
2021/05/20 06:10:43;;;;;;;6.77;6.17;;;20.40;54.70;;;;;;4989269;28;20231;-54
2021/05/20 06:13:10;;;;;;;7.60;6.90;;;20.40;54.70;;;;;;4989971;28;20235;-54
2021/05/20 06:15:43;;;;;;;7.53;6.87;;;20.50;54.70;;;;;;4990148;28;20755;-54
2021/05/20 06:18:10;;;;;;;8.60;7.80;;;20.40;54.50;;;;;;4989838;28;20224;-55
2021/05/20 06:20:37;;;;;;;8.67;7.63;;;20.50;54.40;;;;;;5007095;28;20239;-53
2021/05/20 06:23:04;;;;;;;8.43;7.63;;;20.50;54.40;;;;;;4987433;28;20222;-55
2021/05/20 06:25:35;;;;;;;8.97;8.10;;;20.40;54.40;;;;;;4990115;28;20232;-52
2021/05/20 06:28:06;;;;;;;8.97;8.07;;;20.40;54.30;;;;;;4988869;28;20235;-53
2021/05/20 06:30:34;;;;;;;9.57;8.67;;;20.40;54.30;;;;;;4988513;28;20220;-53
2021/05/20 06:33:01;;;;;;;8.90;8.10;;;20.40;54.20;;;;;;4988555;28;20234;-55
2021/05/20 06:35:38;;;;;;;9.53;8.63;;;20.50;54.20;;;;;;4988562;28;20602;-55
2021/05/20 06:38:04;;;;;;;12.90;8.83;;;20.50;54.20;;;;;;4988386;28;20589;-53
2021/05/20 06:40:31;;;;;;;9.10;8.30;;;20.40;54.30;;;;;;4991018;28;20227;-54
2021/05/20 06:42:58;;;;;;;9.87;8.87;;;20.40;54.20;;;;;;4990117;28;20223;-54
2021/05/20 06:45:35;;;;;;;9.73;8.83;;;20.40;54.20;;;;;;4988916;28;20228;-55
2021/05/20 06:48:04;;;;;;;9.70;8.80;;;20.40;54.20;;;;;;4988003;28;20236;-54
2021/05/20 06:50:32;;;;;;;8.73;7.93;;;20.40;54.10;;;;;;4999225;28;20283;-55
2021/05/20 06:53:00;;;;;;;9.23;8.37;;;20.50;54.20;;;;;;4989580;28;20222;-55
2021/05/20 06:55:28;;;;;;;9.00;8.13;;;20.50;54.20;;;;;;4996630;28;20227;-56
2021/05/20 07:00:42;;;;;;;10.40;9.30;;;20.40;54.10;;;;;;4986331;28;20302;-54
2021/05/20 07:03:16;;;;;;;9.90;8.70;;;20.40;54.00;;;;;;4974663;28;20224;-56
2021/05/20 07:06:02;;;;;;;9.83;8.93;;;20.40;54.00;;;;;;4987413;28;20231;-55
2021/05/20 07:08:34;;;;;;;9.10;8.20;;;20.40;53.90;;;;;;5003623;28;20646;-55
2021/05/20 07:11:03;;;;;;;10.17;9.20;;;20.50;54.00;;;;;;4984969;28;20228;-55
2021/05/20 07:13:34;;;;;;;11.03;9.90;;;20.50;54.10;;;;;;4989052;28;20577;-54
2021/05/20 07:16:11;;;;;;;10.83;9.63;;;20.50;53.90;;;;;;4988928;28;20753;-55
2021/05/20 07:18:37;;;;;;;13.57;10.70;;;20.50;54.00;;;;;;4989928;28;20232;-54
2021/05/20 07:21:04;;;;;;;11.03;9.90;;;20.40;54.00;;;;;;4988931;28;21135;-55
2021/05/20 07:23:31;;;;;;;10.93;9.83;;;20.50;54.10;;;;;;4988689;28;20228;-55
2021/05/20 07:25:58;;;;;;;10.90;9.80;;;20.50;54.10;;;;;;4990130;28;20568;-55
2021/05/20 07:28:25;;;;;;;10.53;9.43;;;20.50;54.20;;;;;;4984383;28;20232;-52
2021/05/20 07:30:52;;;;;;;10.90;9.77;;;20.50;54.20;;;;;;4985065;28;20244;-53
2021/05/20 07:33:19;;;;;;;10.80;9.40;;;20.50;54.20;;;;;;5004101;28;20483;-53
2021/05/20 07:35:45;;;;;;;10.47;9.43;;;20.50;54.30;;;;;;4989327;28;20224;-54
2021/05/20 07:38:12;;;;;;;11.23;10.03;;;20.50;54.20;;;;;;4989063;28;20255;-53
2021/05/20 07:40:45;;;;;;;13.63;10.13;;;20.50;54.10;;;;;;4988709;28;20230;-53
2021/05/20 07:43:14;;;;;;;11.93;10.63;;;20.50;54.10;;;;;;4981852;28;20236;-55
2021/05/20 07:45:42;;;;;;;12.57;10.57;;;20.50;54.00;;;;;;4990701;28;20591;-56
2021/05/20 07:48:13;;;;;;;11.67;9.83;;;20.50;54.00;;;;;;4987169;28;20236;-55
2021/05/20 07:50:43;;;;;;;10.83;9.67;;;20.50;54.20;;;;;;4983560;28;20228;-54
2021/05/20 07:53:19;;;;;;;12.13;10.33;;;20.50;54.20;;;;;;4985596;28;20721;-55
2021/05/20 07:55:49;;;;;;;10.43;9.43;;;20.50;54.10;;;;;;4985390;28;20235;-54
2021/05/20 07:58:18;;;;;;;10.93;9.60;;;20.50;54.00;;;;;;5009260;28;20242;-56
2021/05/20 08:00:55;;;;;;;10.87;9.53;;;20.50;54.00;;;;;;4989921;28;20585;-55
2021/05/20 08:08:56;;;;;;;13.17;11.13;;;20.50;53.80;;;;;;4993928;28;20228;-54
2021/05/20 08:11:27;;;;;;;13.50;11.10;;;20.50;53.80;;;;;;4982244;28;20236;-58
2021/05/20 08:14:19;;;;;;;15.13;11.60;;;20.50;53.70;;;;;;4980869;28;20716;-56
2021/05/20 08:16:47;;;;;;;12.83;11.10;;;20.50;53.70;;;;;;5003158;28;20231;-65
2021/05/20 08:19:21;;;;;;;14.47;11.50;;;20.50;53.60;;;;;;4984121;28;20259;-65
2021/05/20 08:21:52;;;;;;;13.63;11.70;;;20.50;53.70;;;;;;5001275;28;20715;-64
2021/05/20 08:24:23;;;;;;;13.87;11.40;;;20.50;53.60;;;;;;4995014;28;20622;-65
2021/05/20 21:09:23;;;;;;;1.50;0.70;;;21.50;54.40;;;;;;5030871;23;20316;-63
2021/05/20 21:11:50;;;;;;;3.03;0.80;;;21.50;54.50;;;;;;5044245;28;20279;-63
2021/05/20 21:14:16;;;;;;;1.20;0.90;;;21.50;54.40;;;;;;5049186;28;20281;-63
2021/05/20 21:16:44;;;;;;;1.10;0.87;;;21.50;54.30;;;;;;5050570;28;20264;-63
2021/05/20 21:19:11;;;;;;;1.67;0.90;;;21.50;54.50;;;;;;5043478;28;20666;-63
2021/05/20 21:21:40;;;;;;;1.93;0.70;;;21.50;54.50;;;;;;5048038;28;20230;-63
2021/05/20 21:24:08;;;;;;;2.47;0.80;;;21.50;54.20;;;;;;5049031;28;20709;-63
2021/05/20 21:26:35;;;;;;;0.97;0.77;;;21.50;54.00;;;;;;5048872;28;20228;-63
2021/05/20 21:29:02;;;;;;;1.00;0.80;;;21.40;54.30;;;;;;5046520;28;20225;-63
2021/05/20 21:31:29;;;;;;;1.90;0.80;;;21.40;53.90;;;;;;5048518;28;20252;-63
2021/05/20 21:33:56;;;;;;;1.27;0.70;;;21.40;54.20;;;;;;5050964;28;20272;-64
2021/05/20 21:36:23;;;;;;;1.43;0.70;;;21.40;54.20;;;;;;5042321;28;20233;-63
2021/05/20 21:38:50;;;;;;;1.70;0.90;;;21.40;54.40;;;;;;5048904;28;20230;-63
2021/05/20 21:41:17;;;;;;;2.63;0.90;;;21.40;54.50;;;;;;5051641;28;20261;-63
2021/05/20 21:43:43;;;;;;;1.67;0.70;;;21.40;54.50;;;;;;5051284;28;20222;-63
2021/05/20 21:46:10;;;;;;;0.87;0.60;;;21.40;54.30;;;;;;5047970;28;20229;-63
2021/05/20 21:48:37;;;;;;;1.50;0.70;;;21.40;55.00;;;;;;5048634;28;20236;-63
2021/05/20 21:51:05;;;;;;;0.70;0.70;;;21.40;54.20;;;;;;5036775;28;20227;-63
2021/05/20 21:53:32;;;;;;;1.00;0.87;;;21.40;54.10;;;;;;5047025;28;20231;-63
2021/05/20 21:55:59;;;;;;;2.13;0.80;;;21.40;54.20;;;;;;5053747;28;20256;-63
2021/05/20 21:58:26;;;;;;;1.67;0.80;;;21.40;53.70;;;;;;5050251;28;20462;-63
2021/05/20 22:00:54;;;;;;;0.97;0.70;;;21.40;54.00;;;;;;5042303;28;20576;-63
2021/05/20 22:03:21;;;;;;;2.30;0.90;;;21.40;54.00;;;;;;5039910;28;20222;-63
2021/05/20 22:05:48;;;;;;;2.93;0.77;;;21.40;54.20;;;;;;5051866;28;20221;-63
2021/05/20 22:08:15;;;;;;;0.80;0.70;;;21.30;54.00;;;;;;5048495;28;20222;-63
2021/05/20 22:10:56;;;;;;;0.90;0.60;;;21.30;54.10;;;;;;5054789;28;20221;-63
2021/05/20 22:15:53;;;;;;;1.63;0.80;;;21.30;54.00;;;;;;5043513;28;20230;-62
2021/05/20 22:18:20;;;;;;;1.03;0.77;;;21.30;54.10;;;;;;5017304;28;20233;-63
2021/05/20 22:20:47;;;;;;;1.50;0.80;;;21.30;53.90;;;;;;5039191;28;20231;-63
2021/05/20 22:23:15;;;;;;;1.20;0.70;;;21.30;53.90;;;;;;5038663;28;20228;-64
2021/05/20 22:25:54;;;;;;;1.33;0.70;;;21.30;54.00;;;;;;5042023;28;20222;-64
2021/05/20 22:28:24;;;;;;;2.07;0.87;;;21.30;53.80;;;;;;5028000;28;20222;-63
2021/05/20 22:31:02;;;;;;;1.33;0.80;;;21.30;53.50;;;;;;5051330;28;20229;-63
2021/05/20 22:33:29;;;;;;;0.90;0.57;;;21.30;53.80;;;;;;5045685;28;20485;-63
2021/05/20 22:35:56;;;;;;;0.80;0.60;;;21.30;53.60;;;;;;5054674;28;20222;-63
2021/05/20 22:38:23;;;;;;;1.73;0.70;;;21.30;53.60;;;;;;5052038;28;21080;-63
2021/05/20 22:40:50;;;;;;;0.80;0.50;;;21.30;54.20;;;;;;5055288;28;20225;-63
2021/05/20 22:43:16;;;;;;;0.53;0.40;;;21.20;53.50;;;;;;5047290;28;21721;-63
2021/05/20 22:45:43;;;;;;;1.03;0.63;;;21.30;53.50;;;;;;5053150;28;20240;-63
2021/05/20 22:48:10;;;;;;;1.43;0.80;;;21.20;53.50;;;;;;5049737;28;20257;-63
2021/05/20 22:50:38;;;;;;;1.03;0.50;;;21.30;53.50;;;;;;5050147;28;20803;-63
2021/05/20 22:53:05;;;;;;;1.83;0.70;;;21.20;53.30;;;;;;5051898;28;20217;-63
2021/05/20 22:55:32;;;;;;;1.20;0.70;;;21.20;53.30;;;;;;5052319;28;20325;-63
2021/05/20 22:57:59;;;;;;;1.43;0.70;;;21.20;53.40;;;;;;5038596;28;20217;-63
2021/05/20 23:00:26;;;;;;;1.37;0.80;;;21.20;53.90;;;;;;5052664;28;20359;-63
2021/05/20 23:02:53;;;;;;;0.67;0.60;;;21.20;53.20;;;;;;5025240;28;20748;-63
2021/05/20 23:05:19;;;;;;;2.03;0.70;;;21.20;53.40;;;;;;5038392;28;20330;-63
2021/05/20 23:07:46;;;;;;;0.77;0.63;;;21.20;53.20;;;;;;5044122;28;20218;-63
2021/05/20 23:10:13;;;;;;;0.80;0.60;;;21.20;53.20;;;;;;5040687;28;20234;-62
2021/05/20 23:12:40;;;;;;;1.47;0.60;;;21.20;53.00;;;;;;5042898;28;20249;-64
2021/05/20 23:15:07;;;;;;;0.77;0.67;;;21.20;53.00;;;;;;5037282;28;20218;-63
2021/05/20 23:17:34;;;;;;;2.50;0.90;;;21.10;52.80;;;;;;5047709;28;20230;-63
2021/05/20 23:20:01;;;;;;;3.73;1.00;;;21.20;52.80;;;;;;5046207;28;20220;-63
2021/05/20 23:22:28;;;;;;;1.50;0.80;;;21.20;53.00;;;;;;5045677;28;20230;-61
2021/05/20 23:24:56;;;;;;;1.20;0.67;;;21.20;52.90;;;;;;5046825;28;20233;-63
2021/05/20 23:27:23;;;;;;;1.77;0.83;;;21.20;53.00;;;;;;5045656;28;21598;-63
2021/05/20 23:29:49;;;;;;;2.23;0.97;;;21.10;52.80;;;;;;5044858;28;20311;-63
2021/05/20 23:32:16;;;;;;;2.30;0.90;;;21.10;52.40;;;;;;5031696;28;20246;-63
2021/05/20 23:34:43;;;;;;;2.07;0.60;;;21.10;52.80;;;;;;5031617;28;20218;-63
2021/05/20 23:37:10;;;;;;;2.40;0.87;;;21.10;52.70;;;;;;5036772;28;20230;-63
2021/05/20 23:39:37;;;;;;;2.23;1.00;;;21.10;52.50;;;;;;5032864;28;20281;-63
2021/05/20 23:42:04;;;;;;;1.63;0.80;;;21.10;52.40;;;;;;5025883;28;20222;-63
2021/05/20 23:44:31;;;;;;;1.83;0.90;;;21.10;52.60;;;;;;5036082;28;20214;-63
2021/05/20 23:46:59;;;;;;;2.20;0.80;;;21.10;52.10;;;;;;5044028;28;20740;-62
2021/05/20 23:49:26;;;;;;;1.63;0.67;;;21.10;52.20;;;;;;5044742;28;20229;-63
2021/05/20 23:51:53;;;;;;;0.83;0.83;;;21.10;52.50;;;;;;5043760;28;20227;-63
2021/05/20 23:54:21;;;;;;;2.20;0.87;;;21.10;52.30;;;;;;5044553;28;20755;-63
2021/05/20 23:56:48;;;;;;;1.20;0.80;;;21.10;52.20;;;;;;5045058;28;20234;-63
2021/05/20 23:59:15;;;;;;;1.50;0.70;;;21.00;52.30;;;;;;5046236;28;20229;-64
